Map

Track Data

SID SEASON NUMBER BASIN SUBBASIN NAME ISO_TIME NATURE LAT LON WMO_WIND WMO_PRES WMO_AGENCY TRACK_TYPE DIST2LAND LANDFALL IFLAG USA_AGENCY USA_ATCF_ID USA_LAT USA_LON USA_RECORD USA_STATUS USA_WIND USA_PRES USA_SSHS USA_R34_NE USA_R34_SE USA_R34_SW USA_R34_NW USA_R50_NE USA_R50_SE USA_R50_SW USA_R50_NW USA_R64_NE USA_R64_SE USA_R64_SW USA_R64_NW USA_POCI USA_ROCI USA_RMW USA_EYE TOKYO_LAT TOKYO_LON TOKYO_GRADE TOKYO_WIND TOKYO_PRES TOKYO_R50_DIR TOKYO_R50_LONG TOKYO_R50_SHORT TOKYO_R30_DIR TOKYO_R30_LONG TOKYO_R30_SHORT TOKYO_LAND CMA_LAT CMA_LON CMA_CAT CMA_WIND CMA_PRES HKO_LAT HKO_LON HKO_CAT HKO_WIND HKO_PRES NEWDELHI_LAT NEWDELHI_LON NEWDELHI_GRADE NEWDELHI_WIND NEWDELHI_PRES NEWDELHI_CI NEWDELHI_DP NEWDELHI_POCI REUNION_LAT REUNION_LON REUNION_TYPE REUNION_WIND REUNION_PRES REUNION_TNUM REUNION_CI REUNION_RMW REUNION_R34_NE REUNION_R34_SE REUNION_R34_SW REUNION_R34_NW REUNION_R50_NE REUNION_R50_SE REUNION_R50_SW REUNION_R50_NW REUNION_R64_NE REUNION_R64_SE REUNION_R64_SW REUNION_R64_NW BOM_LAT BOM_LON BOM_TYPE BOM_WIND BOM_PRES BOM_TNUM BOM_CI BOM_RMW BOM_R34_NE BOM_R34_SE BOM_R34_SW BOM_R34_NW BOM_R50_NE BOM_R50_SE BOM_R50_SW BOM_R50_NW BOM_R64_NE BOM_R64_SE BOM_R64_SW BOM_R64_NW BOM_ROCI BOM_POCI BOM_EYE BOM_POS_METHOD BOM_PRES_METHOD NADI_LAT NADI_LON NADI_CAT NADI_WIND NADI_PRES WELLINGTON_LAT WELLINGTON_LON WELLINGTON_WIND WELLINGTON_PRES DS824_LAT DS824_LON DS824_STAGE DS824_WIND DS824_PRES TD9636_LAT TD9636_LON TD9636_STAGE TD9636_WIND TD9636_PRES TD9635_LAT TD9635_LON TD9635_WIND TD9635_PRES TD9635_ROCI NEUMANN_LAT NEUMANN_LON NEUMANN_CLASS NEUMANN_WIND NEUMANN_PRES MLC_LAT MLC_LON MLC_CLASS MLC_WIND MLC_PRES USA_GUST BOM_GUST BOM_GUST_PER REUNION_GUST REUNION_GUST_PER USA_SEAHGT USA_SEARAD_NE USA_SEARAD_SE USA_SEARAD_SW USA_SEARAD_NW STORM_SPEED STORM_DIR
1938355S07072 1939 71 SI MM NOT_NAMED 1938-12-21 06:00:00 NR -7.00000 72.2000 reunion main 1712 1712 _____O________ -1 -7.00000 72.2000 99 9.90000 16 188
1938355S07072 1939 71 SI MM NOT_NAMED 1938-12-21 09:00:00 NR -7.80070 72.0956 main 1794 1794 _____P________ -1 -7.80070 72.0956 99 16 187
1938355S07072 1939 71 SI MM NOT_NAMED 1938-12-21 12:00:00 NR -8.58996 71.9995 main 1877 1877 _____P________ -1 -8.58996 71.9995 99 16 186
1938355S07072 1939 71 SI MM NOT_NAMED 1938-12-21 15:00:00 NR -9.35545 71.9205 main 1938 1896 _____P________ -1 -9.35545 71.9205 99 15 185
1938355S07072 1939 71 SI MM NOT_NAMED 1938-12-21 18:00:00 NR -10.0849 71.8678 main 1889 1840 _____P________ -1 -10.0849 71.8678 99 14 183
1938355S07072 1939 71 SI MM NOT_NAMED 1938-12-21 21:00:00 NR -10.7661 71.8503 main 1842 1803 _____P________ -1 -10.7661 71.8503 99 13 0
1938355S07072 1939 71 SI MM NOT_NAMED 1938-12-22 00:00:00 NR -11.3870 71.8771 main 1803 1772 _____P________ -1 -11.3870 71.8771 99 12 175
1938355S07072 1939 71 SI MM NOT_NAMED 1938-12-22 03:00:00 NR -11.9356 71.9572 main 1781 1757 _____P________ -1 -11.9356 71.9572 99 10 168
1938355S07072 1939 71 SI MM NOT_NAMED 1938-12-22 06:00:00 NR -12.4000 72.1000 reunion main 1761 1753 _____O________ -1 -12.4000 72.1000 99 9.90000 9 158
1938355S07072 1939 71 SI MM NOT_NAMED 1938-12-22 09:00:00 NR -12.7728 72.3111 main 1757 1757 _____P________ -1 -12.7728 72.3111 99 8 145
1938355S07072 1939 71 SI MM NOT_NAMED 1938-12-22 12:00:00 NR -13.0650 72.5833 main 1769 1769 _____P________ -1 -13.0650 72.5833 99 8 132
1938355S07072 1939 71 SI MM NOT_NAMED 1938-12-22 15:00:00 NR -13.2923 72.9059 main 1786 1786 _____P________ -1 -13.2923 72.9059 99 8 121
1938355S07072 1939 71 SI MM NOT_NAMED 1938-12-22 18:00:00 NR -13.4703 73.2681 main 1815 1815 _____P________ -1 -13.4703 73.2681 99 8 114
1938355S07072 1939 71 SI MM NOT_NAMED 1938-12-22 21:00:00 NR -13.6143 73.6593 main 1848 1848 _____P________ -1 -13.6143 73.6593 99 8 109
1938355S07072 1939 71 SI MM NOT_NAMED 1938-12-23 00:00:00 NR -13.7402 74.0688 main 1882 1878 _____P________ -1 -13.7402 74.0688 99 8 107
1938355S07072 1939 71 SI MM NOT_NAMED 1938-12-23 03:00:00 NR -13.8635 74.4858 main 1912 1912 _____P________ -1 -13.8635 74.4858 99 8 108
1938355S07072 1939 71 SI MM NOT_NAMED 1938-12-23 06:00:00 NR -14.0000 74.9000 reunion main 1947 1947 _____O________ -1 -14.0000 74.9000 99 9.90000 8 115
1938355S07072 1939 71 SI MM NOT_NAMED 1938-12-23 09:00:00 NR -14.2175 75.2734 main 1978 1974 _____P________ -1 -14.2175 75.2734 99 9 121
1938355S07072 1939 71 SI MM NOT_NAMED 1938-12-23 12:00:00 NR -14.4395 75.6520 main 2009 2005 _____P________ -1 -14.4395 75.6520 99 9 121
1938355S07072 1939 71 SI MM NOT_NAMED 1938-12-23 15:00:00 NR -14.6649 76.0334 main 2027 2027 _____P________ -1 -14.6649 76.0334 99 9 122
1938355S07072 1939 71 SI MM NOT_NAMED 1938-12-23 18:00:00 NR -14.8924 76.4152 main 2060 2060 _____P________ -1 -14.8924 76.4152 99 9 122
1938355S07072 1939 71 SI MM NOT_NAMED 1938-12-23 21:00:00 NR -15.1208 76.7952 main 2093 2093 _____P________ -1 -15.1208 76.7952 99 9 122
1938355S07072 1939 71 SI MM NOT_NAMED 1938-12-24 00:00:00 NR -15.3490 77.1709 main 2127 2123 _____P________ -1 -15.3490 77.1709 99 9 122
1938355S07072 1939 71 SI MM NOT_NAMED 1938-12-24 03:00:00 NR -15.5758 77.5400 main 2147 2147 _____P________ -1 -15.5758 77.5400 99 8 123
1938355S07072 1939 71 SI MM NOT_NAMED 1938-12-24 06:00:00 NR -15.8000 77.9000 reunion main 2182 2182 _____O________ -1 -15.8000 77.9000 99 9.90000 8 123
1938355S07072 1939 71 SI MM NOT_NAMED 1938-12-24 09:00:00 NR -16.0209 78.2492 main 2207 2207 _____P________ -1 -16.0209 78.2492 99 8 124
1938355S07072 1939 71 SI MM NOT_NAMED 1938-12-24 12:00:00 NR -16.2385 78.5885 main 2242 2239 _____P________ -1 -16.2385 78.5885 99 8 124
1938355S07072 1939 71 SI MM NOT_NAMED 1938-12-24 15:00:00 NR -16.4534 78.9193 main 2264 2264 _____P________ -1 -16.4534 78.9193 99 8 124
1938355S07072 1939 71 SI MM NOT_NAMED 1938-12-24 18:00:00 NR -16.6659 79.2432 main 2290 2290 _____P________ -1 -16.6659 79.2432 99 7 125
1938355S07072 1939 71 SI MM NOT_NAMED 1938-12-24 21:00:00 NR -16.8764 79.5618 main 2327 2327 _____P________ -1 -16.8764 79.5618 99 7 125
1938355S07072 1939 71 SI MM NOT_NAMED 1938-12-25 00:00:00 NR -17.0854 79.8764 main 2353 2353 _____P________ -1 -17.0854 79.8764 99 7 125
1938355S07072 1939 71 SI MM NOT_NAMED 1938-12-25 03:00:00 NR -17.2931 80.1886 main 2379 2379 _____P________ -1 -17.2931 80.1886 99 7 125
1938355S07072 1939 71 SI MM NOT_NAMED 1938-12-25 06:00:00 NR -17.5000 80.5000 main 2406 _____O________ -1 -17.5000 80.5000 99 9.90000 7 125

About IBTrACS Database

This database is a web-friendly format of International Best Track Archive for Climate Stewardship (IBTrACS), a global best track data archive curated by NOAA dating back to 1842.

Updated: 2021-11-26